sensor_id;sensor_type;location;lat;lon;timestamp;temperature;humidity
16980;DHT22;42288;52.182;21.156;2022-08-19T00:02:23;22.90;93.00
16980;DHT22;42288;52.182;21.156;2022-08-19T00:04:48;22.80;93.00
16980;DHT22;42288;52.182;21.156;2022-08-19T00:07:18;22.80;93.00
16980;DHT22;42288;52.182;21.156;2022-08-19T00:09:43;22.80;93.10
16980;DHT22;42288;52.182;21.156;2022-08-19T00:12:09;22.80;93.10
16980;DHT22;42288;52.182;21.156;2022-08-19T00:14:35;22.70;93.20
16980;DHT22;42288;52.182;21.156;2022-08-19T00:17:02;22.70;93.20
16980;DHT22;42288;52.182;21.156;2022-08-19T00:19:28;22.60;93.30
16980;DHT22;42288;52.182;21.156;2022-08-19T00:21:54;22.60;93.40
16980;DHT22;42288;52.182;21.156;2022-08-19T00:24:19;22.50;93.40
16980;DHT22;42288;52.182;21.156;2022-08-19T00:26:45;22.50;93.50
16980;DHT22;42288;52.182;21.156;2022-08-19T00:29:13;22.50;93.50
16980;DHT22;42288;52.182;21.156;2022-08-19T00:31:39;22.50;93.60
16980;DHT22;42288;52.182;21.156;2022-08-19T00:34:04;22.40;93.70
16980;DHT22;42288;52.182;21.156;2022-08-19T00:36:30;22.30;93.90
16980;DHT22;42288;52.182;21.156;2022-08-19T00:38:57;22.20;94.20
16980;DHT22;42288;52.182;21.156;2022-08-19T00:41:24;22.30;94.30
16980;DHT22;42288;52.182;21.156;2022-08-19T00:44:05;22.20;94.20
16980;DHT22;42288;52.182;21.156;2022-08-19T00:46:32;22.30;94.20
16980;DHT22;42288;52.182;21.156;2022-08-19T00:48:59;22.20;94.20
16980;DHT22;42288;52.182;21.156;2022-08-19T00:51:27;22.10;94.20
16980;DHT22;42288;52.182;21.156;2022-08-19T00:53:55;22.20;94.30
16980;DHT22;42288;52.182;21.156;2022-08-19T00:56:22;22.10;94.20
16980;DHT22;42288;52.182;21.156;2022-08-19T00:58:48;22.10;94.20
16980;DHT22;42288;52.182;21.156;2022-08-19T01:01:14;22.10;94.30
16980;DHT22;42288;52.182;21.156;2022-08-19T01:03:40;22.00;94.40
16980;DHT22;42288;52.182;21.156;2022-08-19T01:06:06;21.90;94.60
16980;DHT22;42288;52.182;21.156;2022-08-19T01:08:31;21.90;94.60
16980;DHT22;42288;52.182;21.156;2022-08-19T01:10:59;21.90;94.60
16980;DHT22;42288;52.182;21.156;2022-08-19T01:13:28;21.90;94.60
16980;DHT22;42288;52.182;21.156;2022-08-19T01:15:59;21.90;94.80
16980;DHT22;42288;52.182;21.156;2022-08-19T01:18:27;21.80;94.70
16980;DHT22;42288;52.182;21.156;2022-08-19T01:20:55;21.80;94.60
16980;DHT22;42288;52.182;21.156;2022-08-19T01:23:21;21.80;94.50
16980;DHT22;42288;52.182;21.156;2022-08-19T01:25:50;21.80;94.60
16980;DHT22;42288;52.182;21.156;2022-08-19T01:28:25;21.80;94.60
16980;DHT22;42288;52.182;21.156;2022-08-19T01:30:51;21.70;94.70
16980;DHT22;42288;52.182;21.156;2022-08-19T01:33:18;21.80;94.60
16980;DHT22;42288;52.182;21.156;2022-08-19T01:35:44;21.80;94.60
16980;DHT22;42288;52.182;21.156;2022-08-19T01:38:21;21.70;94.80
16980;DHT22;42288;52.182;21.156;2022-08-19T01:40:47;21.80;94.90
16980;DHT22;42288;52.182;21.156;2022-08-19T01:43:13;21.70;94.90
16980;DHT22;42288;52.182;21.156;2022-08-19T01:45:39;21.70;94.90
16980;DHT22;42288;52.182;21.156;2022-08-19T01:48:08;21.70;95.00
16980;DHT22;42288;52.182;21.156;2022-08-19T01:50:35;21.70;95.10
16980;DHT22;42288;52.182;21.156;2022-08-19T01:53:02;21.80;95.20
16980;DHT22;42288;52.182;21.156;2022-08-19T01:55:29;21.70;95.30
16980;DHT22;42288;52.182;21.156;2022-08-19T01:57:58;21.70;95.30
16980;DHT22;42288;52.182;21.156;2022-08-19T02:00:27;21.70;95.30
16980;DHT22;42288;52.182;21.156;2022-08-19T02:02:53;21.70;95.10
16980;DHT22;42288;52.182;21.156;2022-08-19T02:05:19;21.70;95.10
16980;DHT22;42288;52.182;21.156;2022-08-19T02:07:46;21.50;95.40
16980;DHT22;42288;52.182;21.156;2022-08-19T02:10:16;21.50;95.70
16980;DHT22;42288;52.182;21.156;2022-08-19T02:12:42;21.50;95.70
16980;DHT22;42288;52.182;21.156;2022-08-19T02:15:08;21.60;95.80
16980;DHT22;42288;52.182;21.156;2022-08-19T02:17:34;21.40;96.00
16980;DHT22;42288;52.182;21.156;2022-08-19T02:19:59;21.40;96.20
16980;DHT22;42288;52.182;21.156;2022-08-19T02:22:25;21.50;96.60
16980;DHT22;42288;52.182;21.156;2022-08-19T02:24:52;21.50;96.10
16980;DHT22;42288;52.182;21.156;2022-08-19T02:27:18;21.60;96.00
16980;DHT22;42288;52.182;21.156;2022-08-19T02:29:46;21.60;96.00
16980;DHT22;42288;52.182;21.156;2022-08-19T02:32:12;21.60;96.20
16980;DHT22;42288;52.182;21.156;2022-08-19T02:34:38;21.50;96.00
16980;DHT22;42288;52.182;21.156;2022-08-19T02:37:04;21.60;96.00
16980;DHT22;42288;52.182;21.156;2022-08-19T02:39:30;21.60;96.00
16980;DHT22;42288;52.182;21.156;2022-08-19T02:41:55;21.70;95.80
16980;DHT22;42288;52.182;21.156;2022-08-19T02:44:21;21.60;95.90
16980;DHT22;42288;52.182;21.156;2022-08-19T02:46:47;21.60;95.90
16980;DHT22;42288;52.182;21.156;2022-08-19T02:49:13;21.60;95.90
16980;DHT22;42288;52.182;21.156;2022-08-19T02:51:43;21.60;96.10
16980;DHT22;42288;52.182;21.156;2022-08-19T02:54:09;21.70;95.90
16980;DHT22;42288;52.182;21.156;2022-08-19T02:56:37;21.70;95.80
16980;DHT22;42288;52.182;21.156;2022-08-19T02:59:03;21.70;95.80
16980;DHT22;42288;52.182;21.156;2022-08-19T03:01:32;21.70;95.80
16980;DHT22;42288;52.182;21.156;2022-08-19T03:04:02;21.70;95.80
16980;DHT22;42288;52.182;21.156;2022-08-19T03:06:29;21.80;95.90
16980;DHT22;42288;52.182;21.156;2022-08-19T03:08:55;21.80;95.80
16980;DHT22;42288;52.182;21.156;2022-08-19T03:11:24;21.70;95.80
16980;DHT22;42288;52.182;21.156;2022-08-19T03:13:50;21.50;96.20
16980;DHT22;42288;52.182;21.156;2022-08-19T03:16:17;21.50;96.40
16980;DHT22;42288;52.182;21.156;2022-08-19T03:18:43;21.60;96.40
16980;DHT22;42288;52.182;21.156;2022-08-19T03:21:09;21.60;96.30
16980;DHT22;42288;52.182;21.156;2022-08-19T03:46:49;21.20;96.80
16980;DHT22;42288;52.182;21.156;2022-08-19T03:49:16;21.40;97.70
16980;DHT22;42288;52.182;21.156;2022-08-19T03:51:42;21.50;97.50
16980;DHT22;42288;52.182;21.156;2022-08-19T03:54:10;21.40;97.60
16980;DHT22;42288;52.182;21.156;2022-08-19T03:56:38;21.40;97.60
16980;DHT22;42288;52.182;21.156;2022-08-19T03:59:06;21.40;97.50
16980;DHT22;42288;52.182;21.156;2022-08-19T04:01:32;21.40;97.60
16980;DHT22;42288;52.182;21.156;2022-08-19T04:03:59;21.60;97.40
16980;DHT22;42288;52.182;21.156;2022-08-19T04:06:27;21.80;97.00
16980;DHT22;42288;52.182;21.156;2022-08-19T04:08:55;21.90;96.80
16980;DHT22;42288;52.182;21.156;2022-08-19T04:11:25;21.80;96.80
16980;DHT22;42288;52.182;21.156;2022-08-19T04:13:51;21.80;97.00
16980;DHT22;42288;52.182;21.156;2022-08-19T04:16:18;21.80;96.70
16980;DHT22;42288;52.182;21.156;2022-08-19T04:18:46;22.00;96.70
16980;DHT22;42288;52.182;21.156;2022-08-19T04:21:16;22.00;96.50
16980;DHT22;42288;52.182;21.156;2022-08-19T04:23:42;22.00;96.40
16980;DHT22;42288;52.182;21.156;2022-08-19T04:26:13;22.20;96.30
16980;DHT22;42288;52.182;21.156;2022-08-19T04:28:39;22.30;95.90
16980;DHT22;42288;52.182;21.156;2022-08-19T04:31:05;22.30;95.80
16980;DHT22;42288;52.182;21.156;2022-08-19T04:33:30;22.40;95.80
16980;DHT22;42288;52.182;21.156;2022-08-19T04:35:56;22.40;95.80
16980;DHT22;42288;52.182;21.156;2022-08-19T04:38:23;22.40;95.90
16980;DHT22;42288;52.182;21.156;2022-08-19T04:40:51;22.30;95.80
16980;DHT22;42288;52.182;21.156;2022-08-19T04:43:37;22.50;95.70
16980;DHT22;42288;52.182;21.156;2022-08-19T04:46:08;22.70;95.50
16980;DHT22;42288;52.182;21.156;2022-08-19T04:48:35;22.80;95.30
16980;DHT22;42288;52.182;21.156;2022-08-19T04:51:01;22.90;95.20
16980;DHT22;42288;52.182;21.156;2022-08-19T04:53:29;23.00;95.20
16980;DHT22;42288;52.182;21.156;2022-08-19T04:55:59;23.20;95.00
16980;DHT22;42288;52.182;21.156;2022-08-19T04:58:26;23.30;94.60
16980;DHT22;42288;52.182;21.156;2022-08-19T05:00:52;23.20;94.60
16980;DHT22;42288;52.182;21.156;2022-08-19T05:03:19;23.30;94.70
16980;DHT22;42288;52.182;21.156;2022-08-19T05:05:45;23.30;94.70
16980;DHT22;42288;52.182;21.156;2022-08-19T05:08:15;23.20;94.80
16980;DHT22;42288;52.182;21.156;2022-08-19T05:10:45;23.10;94.90
16980;DHT22;42288;52.182;21.156;2022-08-19T05:13:11;23.10;95.00
16980;DHT22;42288;52.182;21.156;2022-08-19T05:15:36;23.30;94.90
16980;DHT22;42288;52.182;21.156;2022-08-19T05:18:02;23.40;94.70
16980;DHT22;42288;52.182;21.156;2022-08-19T05:20:46;23.40;94.70
16980;DHT22;42288;52.182;21.156;2022-08-19T05:23:30;23.40;94.60
16980;DHT22;42288;52.182;21.156;2022-08-19T05:25:55;23.40;94.70
16980;DHT22;42288;52.182;21.156;2022-08-19T05:28:21;23.50;94.60
16980;DHT22;42288;52.182;21.156;2022-08-19T05:30:47;23.60;94.50
16980;DHT22;42288;52.182;21.156;2022-08-19T05:33:14;23.80;94.40
16980;DHT22;42288;52.182;21.156;2022-08-19T05:35:39;23.80;93.80
16980;DHT22;42288;52.182;21.156;2022-08-19T05:38:07;23.90;93.90
16980;DHT22;42288;52.182;21.156;2022-08-19T05:40:37;24.00;94.10
16980;DHT22;42288;52.182;21.156;2022-08-19T05:43:05;24.10;93.60
16980;DHT22;42288;52.182;21.156;2022-08-19T05:45:30;24.30;93.50
16980;DHT22;42288;52.182;21.156;2022-08-19T05:47:56;24.30;93.30
16980;DHT22;42288;52.182;21.156;2022-08-19T05:50:24;24.50;93.00
16980;DHT22;42288;52.182;21.156;2022-08-19T05:52:50;24.60;92.90
16980;DHT22;42288;52.182;21.156;2022-08-19T05:55:16;24.80;92.50
16980;DHT22;42288;52.182;21.156;2022-08-19T05:57:41;24.90;92.40
16980;DHT22;42288;52.182;21.156;2022-08-19T06:00:07;25.00;92.20
16980;DHT22;42288;52.182;21.156;2022-08-19T06:02:35;25.20;92.20
16980;DHT22;42288;52.182;21.156;2022-08-19T06:05:02;25.20;91.70
16980;DHT22;42288;52.182;21.156;2022-08-19T06:07:28;25.10;91.60
16980;DHT22;42288;52.182;21.156;2022-08-19T06:09:54;25.10;91.40
16980;DHT22;42288;52.182;21.156;2022-08-19T06:12:20;25.00;91.70
16980;DHT22;42288;52.182;21.156;2022-08-19T06:14:51;25.10;91.90
16980;DHT22;42288;52.182;21.156;2022-08-19T06:17:20;25.10;91.70
16980;DHT22;42288;52.182;21.156;2022-08-19T06:19:47;25.10;91.70
16980;DHT22;42288;52.182;21.156;2022-08-19T06:22:15;25.20;91.90
16980;DHT22;42288;52.182;21.156;2022-08-19T06:24:41;25.30;91.70
16980;DHT22;42288;52.182;21.156;2022-08-19T06:27:06;25.40;91.50
16980;DHT22;42288;52.182;21.156;2022-08-19T06:29:32;25.50;91.30
16980;DHT22;42288;52.182;21.156;2022-08-19T06:32:00;25.50;91.00
16980;DHT22;42288;52.182;21.156;2022-08-19T06:34:28;25.70;90.90
16980;DHT22;42288;52.182;21.156;2022-08-19T06:36:54;25.50;91.00
16980;DHT22;42288;52.182;21.156;2022-08-19T06:39:23;25.50;91.10
16980;DHT22;42288;52.182;21.156;2022-08-19T06:41:53;25.50;91.20
16980;DHT22;42288;52.182;21.156;2022-08-19T06:44:21;25.50;91.00
16980;DHT22;42288;52.182;21.156;2022-08-19T06:46:47;25.50;91.20
16980;DHT22;42288;52.182;21.156;2022-08-19T06:49:14;25.50;91.10
16980;DHT22;42288;52.182;21.156;2022-08-19T06:51:44;25.70;91.20
16980;DHT22;42288;52.182;21.156;2022-08-19T06:54:10;25.80;90.80
16980;DHT22;42288;52.182;21.156;2022-08-19T06:56:36;26.00;91.10
16980;DHT22;42288;52.182;21.156;2022-08-19T06:59:07;26.20;90.80
16980;DHT22;42288;52.182;21.156;2022-08-19T07:01:39;26.10;90.40
16980;DHT22;42288;52.182;21.156;2022-08-19T07:04:09;26.00;90.30
16980;DHT22;42288;52.182;21.156;2022-08-19T07:06:35;26.10;90.20
16980;DHT22;42288;52.182;21.156;2022-08-19T07:09:03;26.20;90.20
16980;DHT22;42288;52.182;21.156;2022-08-19T07:11:29;26.60;90.20
16980;DHT22;42288;52.182;21.156;2022-08-19T07:13:55;26.80;89.70
16980;DHT22;42288;52.182;21.156;2022-08-19T07:16:21;27.00;88.70
16980;DHT22;42288;52.182;21.156;2022-08-19T07:18:48;27.30;87.50
16980;DHT22;42288;52.182;21.156;2022-08-19T07:21:19;27.50;87.00
16980;DHT22;42288;52.182;21.156;2022-08-19T07:23:46;27.50;86.30
16980;DHT22;42288;52.182;21.156;2022-08-19T07:26:22;27.50;86.80
16980;DHT22;42288;52.182;21.156;2022-08-19T07:28:48;27.30;86.30
16980;DHT22;42288;52.182;21.156;2022-08-19T07:31:17;27.40;86.10
16980;DHT22;42288;52.182;21.156;2022-08-19T07:33:47;27.50;85.40
16980;DHT22;42288;52.182;21.156;2022-08-19T07:36:15;27.50;85.50
16980;DHT22;42288;52.182;21.156;2022-08-19T07:38:44;27.70;85.80
16980;DHT22;42288;52.182;21.156;2022-08-19T07:41:17;27.70;85.30
16980;DHT22;42288;52.182;21.156;2022-08-19T07:43:43;27.70;84.40
16980;DHT22;42288;52.182;21.156;2022-08-19T07:46:09;27.90;84.70
16980;DHT22;42288;52.182;21.156;2022-08-19T07:48:35;27.90;85.00
16980;DHT22;42288;52.182;21.156;2022-08-19T07:51:03;27.90;83.90
16980;DHT22;42288;52.182;21.156;2022-08-19T07:53:31;28.10;83.80
16980;DHT22;42288;52.182;21.156;2022-08-19T07:55:58;28.00;83.40
16980;DHT22;42288;52.182;21.156;2022-08-19T07:58:27;28.30;82.00
16980;DHT22;42288;52.182;21.156;2022-08-19T08:00:52;28.50;82.00
16980;DHT22;42288;52.182;21.156;2022-08-19T08:03:20;28.40;80.60
16980;DHT22;42288;52.182;21.156;2022-08-19T08:05:46;28.30;82.20
16980;DHT22;42288;52.182;21.156;2022-08-19T08:08:30;28.60;82.60
16980;DHT22;42288;52.182;21.156;2022-08-19T08:11:17;28.60;80.00
16980;DHT22;42288;52.182;21.156;2022-08-19T08:13:43;28.50;80.50
16980;DHT22;42288;52.182;21.156;2022-08-19T08:16:09;28.70;81.30
16980;DHT22;42288;52.182;21.156;2022-08-19T08:18:34;28.80;81.00
16980;DHT22;42288;52.182;21.156;2022-08-19T08:21:06;28.80;79.80
16980;DHT22;42288;52.182;21.156;2022-08-19T08:23:32;28.90;79.40
16980;DHT22;42288;52.182;21.156;2022-08-19T08:25:59;29.10;80.00
16980;DHT22;42288;52.182;21.156;2022-08-19T08:28:26;29.10;78.90
16980;DHT22;42288;52.182;21.156;2022-08-19T08:30:52;29.10;77.70
16980;DHT22;42288;52.182;21.156;2022-08-19T08:33:21;29.10;78.20
16980;DHT22;42288;52.182;21.156;2022-08-19T08:35:47;28.90;79.20
16980;DHT22;42288;52.182;21.156;2022-08-19T08:38:14;28.90;80.10
16980;DHT22;42288;52.182;21.156;2022-08-19T08:40:52;28.70;79.90
16980;DHT22;42288;52.182;21.156;2022-08-19T08:43:27;29.00;80.60
16980;DHT22;42288;52.182;21.156;2022-08-19T08:51:23;29.30;78.30
16980;DHT22;42288;52.182;21.156;2022-08-19T08:53:52;29.10;77.70
16980;DHT22;42288;52.182;21.156;2022-08-19T08:56:19;29.10;78.10
16980;DHT22;42288;52.182;21.156;2022-08-19T08:58:58;29.10;78.40
16980;DHT22;42288;52.182;21.156;2022-08-19T09:01:25;29.20;78.90
16980;DHT22;42288;52.182;21.156;2022-08-19T09:03:50;29.30;78.00
16980;DHT22;42288;52.182;21.156;2022-08-19T09:06:38;29.30;77.30
16980;DHT22;42288;52.182;21.156;2022-08-19T09:09:14;29.40;76.70
16980;DHT22;42288;52.182;21.156;2022-08-19T09:12:07;29.50;76.40
16980;DHT22;42288;52.182;21.156;2022-08-19T09:17:01;29.50;74.50
16980;DHT22;42288;52.182;21.156;2022-08-19T09:19:29;29.70;74.30
16980;DHT22;42288;52.182;21.156;2022-08-19T09:21:54;29.80;74.60
16980;DHT22;42288;52.182;21.156;2022-08-19T09:24:20;29.90;74.30
16980;DHT22;42288;52.182;21.156;2022-08-19T09:26:45;29.80;73.50
16980;DHT22;42288;52.182;21.156;2022-08-19T09:29:11;29.90;72.90
16980;DHT22;42288;52.182;21.156;2022-08-19T09:31:38;29.90;73.80
16980;DHT22;42288;52.182;21.156;2022-08-19T09:34:03;29.90;73.40
16980;DHT22;42288;52.182;21.156;2022-08-19T09:36:30;30.00;73.60
16980;DHT22;42288;52.182;21.156;2022-08-19T09:38:59;30.00;72.40
16980;DHT22;42288;52.182;21.156;2022-08-19T09:41:25;30.20;74.20
16980;DHT22;42288;52.182;21.156;2022-08-19T09:43:52;30.10;71.40
16980;DHT22;42288;52.182;21.156;2022-08-19T09:46:22;30.20;70.30
16980;DHT22;42288;52.182;21.156;2022-08-19T09:48:49;30.40;69.60
16980;DHT22;42288;52.182;21.156;2022-08-19T09:51:18;30.40;68.70
16980;DHT22;42288;52.182;21.156;2022-08-19T09:53:46;30.30;68.70
16980;DHT22;42288;52.182;21.156;2022-08-19T09:56:13;30.20;68.90
16980;DHT22;42288;52.182;21.156;2022-08-19T09:58:39;30.30;69.20
16980;DHT22;42288;52.182;21.156;2022-08-19T10:01:06;30.60;70.00
16980;DHT22;42288;52.182;21.156;2022-08-19T10:03:33;30.70;69.10
16980;DHT22;42288;52.182;21.156;2022-08-19T10:06:01;30.80;68.70
16980;DHT22;42288;52.182;21.156;2022-08-19T10:08:32;30.90;68.80
16980;DHT22;42288;52.182;21.156;2022-08-19T10:10:59;31.00;66.50
16980;DHT22;42288;52.182;21.156;2022-08-19T10:13:26;31.10;65.30
16980;DHT22;42288;52.182;21.156;2022-08-19T10:15:54;31.20;64.30
16980;DHT22;42288;52.182;21.156;2022-08-19T10:18:21;31.60;63.50
16980;DHT22;42288;52.182;21.156;2022-08-19T10:20:48;31.30;60.70
16980;DHT22;42288;52.182;21.156;2022-08-19T10:23:14;31.30;61.90
16980;DHT22;42288;52.182;21.156;2022-08-19T10:25:40;31.30;60.30
16980;DHT22;42288;52.182;21.156;2022-08-19T10:28:06;31.60;61.20
16980;DHT22;42288;52.182;21.156;2022-08-19T10:30:32;31.60;60.00
16980;DHT22;42288;52.182;21.156;2022-08-19T10:32:58;31.60;61.00
16980;DHT22;42288;52.182;21.156;2022-08-19T10:35:24;32.30;60.90
16980;DHT22;42288;52.182;21.156;2022-08-19T10:37:52;32.60;58.50
16980;DHT22;42288;52.182;21.156;2022-08-19T10:40:18;32.80;57.90
16980;DHT22;42288;52.182;21.156;2022-08-19T10:42:44;33.70;57.40
16980;DHT22;42288;52.182;21.156;2022-08-19T10:45:10;34.30;55.90
16980;DHT22;42288;52.182;21.156;2022-08-19T10:47:36;35.60;54.30
16980;DHT22;42288;52.182;21.156;2022-08-19T10:50:02;37.60;51.60
16980;DHT22;42288;52.182;21.156;2022-08-19T10:52:48;39.20;47.70
16980;DHT22;42288;52.182;21.156;2022-08-19T10:55:14;39.60;46.80
16980;DHT22;42288;52.182;21.156;2022-08-19T10:57:59;39.30;43.20
16980;DHT22;42288;52.182;21.156;2022-08-19T11:00:25;39.00;43.10
16980;DHT22;42288;52.182;21.156;2022-08-19T11:02:51;38.80;43.70
16980;DHT22;42288;52.182;21.156;2022-08-19T11:05:17;40.40;43.40
16980;DHT22;42288;52.182;21.156;2022-08-19T11:07:43;41.00;42.80
16980;DHT22;42288;52.182;21.156;2022-08-19T11:10:11;40.50;40.90
16980;DHT22;42288;52.182;21.156;2022-08-19T11:12:37;39.30;42.60
16980;DHT22;42288;52.182;21.156;2022-08-19T11:15:08;39.20;43.40
16980;DHT22;42288;52.182;21.156;2022-08-19T11:17:35;40.00;42.30
16980;DHT22;42288;52.182;21.156;2022-08-19T11:20:02;41.70;41.20
16980;DHT22;42288;52.182;21.156;2022-08-19T11:22:30;40.10;41.20
16980;DHT22;42288;52.182;21.156;2022-08-19T11:24:55;39.00;42.30
16980;DHT22;42288;52.182;21.156;2022-08-19T11:27:21;40.30;41.80
16980;DHT22;42288;52.182;21.156;2022-08-19T11:29:47;40.00;41.20
16980;DHT22;42288;52.182;21.156;2022-08-19T11:32:12;39.80;42.40
16980;DHT22;42288;52.182;21.156;2022-08-19T11:34:38;38.20;42.60
16980;DHT22;42288;52.182;21.156;2022-08-19T11:37:04;37.90;44.00
16980;DHT22;42288;52.182;21.156;2022-08-19T11:39:33;37.30;44.80
16980;DHT22;42288;52.182;21.156;2022-08-19T11:42:01;36.10;47.80
16980;DHT22;42288;52.182;21.156;2022-08-19T11:44:28;35.80;47.50
16980;DHT22;42288;52.182;21.156;2022-08-19T11:46:55;35.80;48.10
16980;DHT22;42288;52.182;21.156;2022-08-19T11:49:21;35.10;47.40
16980;DHT22;42288;52.182;21.156;2022-08-19T11:51:48;35.00;48.70
16980;DHT22;42288;52.182;21.156;2022-08-19T11:54:16;34.30;48.10
16980;DHT22;42288;52.182;21.156;2022-08-19T11:56:42;34.30;50.20
16980;DHT22;42288;52.182;21.156;2022-08-19T11:59:08;34.30;50.70
16980;DHT22;42288;52.182;21.156;2022-08-19T12:01:35;34.10;50.40
16980;DHT22;42288;52.182;21.156;2022-08-19T12:04:01;33.70;50.80
16980;DHT22;42288;52.182;21.156;2022-08-19T12:06:30;33.90;50.30
16980;DHT22;42288;52.182;21.156;2022-08-19T12:08:58;34.00;51.10
16980;DHT22;42288;52.182;21.156;2022-08-19T12:11:24;33.90;50.40
16980;DHT22;42288;52.182;21.156;2022-08-19T12:13:50;33.40;51.90
16980;DHT22;42288;52.182;21.156;2022-08-19T12:16:20;33.20;52.20
16980;DHT22;42288;52.182;21.156;2022-08-19T12:18:46;33.30;52.40
16980;DHT22;42288;52.182;21.156;2022-08-19T12:21:16;33.20;52.80
16980;DHT22;42288;52.182;21.156;2022-08-19T12:23:42;32.90;52.70
16980;DHT22;42288;52.182;21.156;2022-08-19T12:26:10;33.20;52.60
16980;DHT22;42288;52.182;21.156;2022-08-19T12:28:36;32.90;53.10
16980;DHT22;42288;52.182;21.156;2022-08-19T12:31:02;32.90;52.90
16980;DHT22;42288;52.182;21.156;2022-08-19T12:33:27;32.90;53.40
16980;DHT22;42288;52.182;21.156;2022-08-19T12:35:54;32.90;53.10
16980;DHT22;42288;52.182;21.156;2022-08-19T12:38:24;33.20;52.40
16980;DHT22;42288;52.182;21.156;2022-08-19T12:40:50;33.00;52.30
16980;DHT22;42288;52.182;21.156;2022-08-19T12:43:17;32.90;51.90
16980;DHT22;42288;52.182;21.156;2022-08-19T12:45:43;33.00;52.50
16980;DHT22;42288;52.182;21.156;2022-08-19T12:48:10;33.20;52.30
16980;DHT22;42288;52.182;21.156;2022-08-19T12:50:35;33.10;51.60
16980;DHT22;42288;52.182;21.156;2022-08-19T12:53:01;33.20;51.70
16980;DHT22;42288;52.182;21.156;2022-08-19T12:55:26;32.90;51.90
16980;DHT22;42288;52.182;21.156;2022-08-19T12:57:54;32.90;52.10
16980;DHT22;42288;52.182;21.156;2022-08-19T13:00:21;32.90;52.90
16980;DHT22;42288;52.182;21.156;2022-08-19T13:02:49;32.90;52.90
16980;DHT22;42288;52.182;21.156;2022-08-19T13:05:19;32.70;52.10
16980;DHT22;42288;52.182;21.156;2022-08-19T13:07:46;32.80;52.30
16980;DHT22;42288;52.182;21.156;2022-08-19T13:10:16;32.90;50.80
16980;DHT22;42288;52.182;21.156;2022-08-19T13:12:44;32.80;50.80
16980;DHT22;42288;52.182;21.156;2022-08-19T13:15:10;32.70;51.70
16980;DHT22;42288;52.182;21.156;2022-08-19T13:17:36;32.70;51.70
16980;DHT22;42288;52.182;21.156;2022-08-19T13:20:03;33.00;52.70
16980;DHT22;42288;52.182;21.156;2022-08-19T13:22:29;33.10;51.70
16980;DHT22;42288;52.182;21.156;2022-08-19T13:24:55;33.20;51.60
16980;DHT22;42288;52.182;21.156;2022-08-19T13:27:21;33.20;50.70
16980;DHT22;42288;52.182;21.156;2022-08-19T13:29:46;32.90;50.60
16980;DHT22;42288;52.182;21.156;2022-08-19T13:32:30;32.80;50.90
16980;DHT22;42288;52.182;21.156;2022-08-19T13:35:16;32.70;51.20
16980;DHT22;42288;52.182;21.156;2022-08-19T13:37:41;32.90;51.60
16980;DHT22;42288;52.182;21.156;2022-08-19T13:40:12;33.00;51.80
16980;DHT22;42288;52.182;21.156;2022-08-19T13:42:41;33.10;51.80
16980;DHT22;42288;52.182;21.156;2022-08-19T13:45:08;33.10;50.60
16980;DHT22;42288;52.182;21.156;2022-08-19T13:47:34;33.00;51.00
16980;DHT22;42288;52.182;21.156;2022-08-19T13:50:03;33.00;51.50
16980;DHT22;42288;52.182;21.156;2022-08-19T13:52:29;33.00;51.10
16980;DHT22;42288;52.182;21.156;2022-08-19T13:54:54;33.00;50.90
16980;DHT22;42288;52.182;21.156;2022-08-19T13:57:20;32.90;50.70
16980;DHT22;42288;52.182;21.156;2022-08-19T13:59:46;33.00;51.10
16980;DHT22;42288;52.182;21.156;2022-08-19T14:02:11;33.00;50.60
16980;DHT22;42288;52.182;21.156;2022-08-19T14:04:37;33.10;51.00
16980;DHT22;42288;52.182;21.156;2022-08-19T14:07:03;33.00;50.70
16980;DHT22;42288;52.182;21.156;2022-08-19T14:09:29;33.00;51.10
16980;DHT22;42288;52.182;21.156;2022-08-19T14:11:55;32.80;50.70
16980;DHT22;42288;52.182;21.156;2022-08-19T14:14:20;32.70;50.70
16980;DHT22;42288;52.182;21.156;2022-08-19T14:16:46;32.70;50.10
16980;DHT22;42288;52.182;21.156;2022-08-19T14:19:12;32.50;50.40
16980;DHT22;42288;52.182;21.156;2022-08-19T14:21:37;32.30;51.50
16980;DHT22;42288;52.182;21.156;2022-08-19T14:24:04;32.30;51.60
16980;DHT22;42288;52.182;21.156;2022-08-19T14:26:30;32.40;51.60
16980;DHT22;42288;52.182;21.156;2022-08-19T14:28:56;32.40;51.20
16980;DHT22;42288;52.182;21.156;2022-08-19T14:31:22;32.30;51.00
16980;DHT22;42288;52.182;21.156;2022-08-19T14:33:48;32.40;51.00
16980;DHT22;42288;52.182;21.156;2022-08-19T14:36:16;32.40;50.70
16980;DHT22;42288;52.182;21.156;2022-08-19T14:38:42;32.40;50.60
16980;DHT22;42288;52.182;21.156;2022-08-19T14:41:17;32.30;51.00
16980;DHT22;42288;52.182;21.156;2022-08-19T14:43:44;32.40;51.60
16980;DHT22;42288;52.182;21.156;2022-08-19T14:46:13;32.50;51.70
16980;DHT22;42288;52.182;21.156;2022-08-19T14:48:40;32.40;51.10
16980;DHT22;42288;52.182;21.156;2022-08-19T14:51:07;32.30;50.50
16980;DHT22;42288;52.182;21.156;2022-08-19T14:53:33;32.50;50.80
16980;DHT22;42288;52.182;21.156;2022-08-19T14:55:59;32.50;51.40
16980;DHT22;42288;52.182;21.156;2022-08-19T14:58:26;32.30;51.20
16980;DHT22;42288;52.182;21.156;2022-08-19T15:00:52;32.20;52.00
16980;DHT22;42288;52.182;21.156;2022-08-19T15:03:17;32.20;52.10
16980;DHT22;42288;52.182;21.156;2022-08-19T15:05:43;32.10;52.50
16980;DHT22;42288;52.182;21.156;2022-08-19T15:08:08;31.90;51.70
16980;DHT22;42288;52.182;21.156;2022-08-19T15:10:33;32.40;52.40
16980;DHT22;42288;52.182;21.156;2022-08-19T15:12:59;32.50;52.40
16980;DHT22;42288;52.182;21.156;2022-08-19T15:15:25;32.40;51.90
16980;DHT22;42288;52.182;21.156;2022-08-19T15:17:50;32.30;51.90
16980;DHT22;42288;52.182;21.156;2022-08-19T15:20:18;31.90;51.30
16980;DHT22;42288;52.182;21.156;2022-08-19T15:22:45;32.00;52.40
16980;DHT22;42288;52.182;21.156;2022-08-19T15:25:13;32.00;52.40
16980;DHT22;42288;52.182;21.156;2022-08-19T15:27:40;32.10;52.90
16980;DHT22;42288;52.182;21.156;2022-08-19T15:30:07;32.00;52.80
16980;DHT22;42288;52.182;21.156;2022-08-19T15:32:34;31.90;52.60
16980;DHT22;42288;52.182;21.156;2022-08-19T15:35:00;31.90;52.90
16980;DHT22;42288;52.182;21.156;2022-08-19T15:37:27;31.90;52.70
16980;DHT22;42288;52.182;21.156;2022-08-19T15:39:53;31.90;53.20
16980;DHT22;42288;52.182;21.156;2022-08-19T15:42:19;32.00;53.00
16980;DHT22;42288;52.182;21.156;2022-08-19T15:44:45;31.90;52.80
16980;DHT22;42288;52.182;21.156;2022-08-19T15:47:12;31.80;52.80
16980;DHT22;42288;52.182;21.156;2022-08-19T15:49:37;31.80;52.90